sensor_id;sensor_type;location;lat;lon;timestamp;P1;durP1;ratioP1;P2;durP2;ratioP2
74612;SDS011;63119;51.788;8.824;2022-09-06T00:00:10;4.10;;;3.13;;
74612;SDS011;63119;51.788;8.824;2022-09-06T00:02:38;5.05;;;3.58;;
74612;SDS011;63119;51.788;8.824;2022-09-06T00:05:04;4.85;;;3.28;;
74612;SDS011;63119;51.788;8.824;2022-09-06T00:07:30;6.25;;;3.58;;
74612;SDS011;63119;51.788;8.824;2022-09-06T00:09:56;5.55;;;3.25;;
74612;SDS011;63119;51.788;8.824;2022-09-06T00:12:22;3.47;;;3.03;;
74612;SDS011;63119;51.788;8.824;2022-09-06T00:14:48;3.60;;;2.70;;
74612;SDS011;63119;51.788;8.824;2022-09-06T00:17:14;4.53;;;3.53;;
74612;SDS011;63119;51.788;8.824;2022-09-06T00:19:40;4.05;;;3.10;;
74612;SDS011;63119;51.788;8.824;2022-09-06T00:22:05;5.40;;;3.10;;
74612;SDS011;63119;51.788;8.824;2022-09-06T00:24:31;5.67;;;3.07;;
74612;SDS011;63119;51.788;8.824;2022-09-06T00:26:56;7.60;;;3.50;;
74612;SDS011;63119;51.788;8.824;2022-09-06T00:29:21;4.53;;;2.87;;
74612;SDS011;63119;51.788;8.824;2022-09-06T00:31:46;4.93;;;3.07;;
74612;SDS011;63119;51.788;8.824;2022-09-06T00:34:12;4.93;;;3.63;;
74612;SDS011;63119;51.788;8.824;2022-09-06T00:36:37;6.43;;;3.43;;
74612;SDS011;63119;51.788;8.824;2022-09-06T00:39:02;5.53;;;2.87;;
74612;SDS011;63119;51.788;8.824;2022-09-06T00:41:28;4.63;;;3.00;;
74612;SDS011;63119;51.788;8.824;2022-09-06T00:43:53;6.27;;;3.20;;
74612;SDS011;63119;51.788;8.824;2022-09-06T00:46:20;4.88;;;3.55;;
74612;SDS011;63119;51.788;8.824;2022-09-06T00:48:49;5.20;;;3.17;;
74612;SDS011;63119;51.788;8.824;2022-09-06T00:51:19;5.38;;;3.30;;
74612;SDS011;63119;51.788;8.824;2022-09-06T00:53:48;3.58;;;3.03;;
74612;SDS011;63119;51.788;8.824;2022-09-06T00:56:14;5.50;;;3.45;;
74612;SDS011;63119;51.788;8.824;2022-09-06T00:58:40;5.57;;;3.25;;
74612;SDS011;63119;51.788;8.824;2022-09-06T01:01:05;5.10;;;3.38;;
74612;SDS011;63119;51.788;8.824;2022-09-06T01:03:31;4.88;;;3.17;;
74612;SDS011;63119;51.788;8.824;2022-09-06T01:06:20;6.18;;;3.83;;
74612;SDS011;63119;51.788;8.824;2022-09-06T01:11:38;6.03;;;3.40;;
74612;SDS011;63119;51.788;8.824;2022-09-06T01:17:07;6.57;;;3.35;;
74612;SDS011;63119;51.788;8.824;2022-09-06T01:20:19;5.50;;;3.38;;
74612;SDS011;63119;51.788;8.824;2022-09-06T01:29:15;5.53;;;3.55;;
74612;SDS011;63119;51.788;8.824;2022-09-06T01:31:51;4.82;;;3.70;;
74612;SDS011;63119;51.788;8.824;2022-09-06T01:34:28;5.57;;;3.40;;
74612;SDS011;63119;51.788;8.824;2022-09-06T01:37:03;4.82;;;3.40;;
74612;SDS011;63119;51.788;8.824;2022-09-06T01:39:34;4.13;;;3.50;;
74612;SDS011;63119;51.788;8.824;2022-09-06T01:42:04;5.00;;;3.17;;
74612;SDS011;63119;51.788;8.824;2022-09-06T01:44:34;4.75;;;3.50;;
74612;SDS011;63119;51.788;8.824;2022-09-06T01:47:07;3.95;;;3.03;;
74612;SDS011;63119;51.788;8.824;2022-09-06T01:52:32;8.00;;;4.38;;
74612;SDS011;63119;51.788;8.824;2022-09-06T01:55:15;5.32;;;3.47;;
74612;SDS011;63119;51.788;8.824;2022-09-06T02:00:18;4.82;;;3.85;;
74612;SDS011;63119;51.788;8.824;2022-09-06T02:05:35;5.97;;;3.53;;
74612;SDS011;63119;51.788;8.824;2022-09-06T02:08:10;4.35;;;3.55;;
74612;SDS011;63119;51.788;8.824;2022-09-06T02:10:49;4.47;;;3.42;;
74612;SDS011;63119;51.788;8.824;2022-09-06T02:13:20;4.57;;;3.80;;
74612;SDS011;63119;51.788;8.824;2022-09-06T02:16:10;6.15;;;3.67;;
74612;SDS011;63119;51.788;8.824;2022-09-06T02:18:37;6.50;;;3.80;;
74612;SDS011;63119;51.788;8.824;2022-09-06T02:21:06;4.65;;;4.00;;
74612;SDS011;63119;51.788;8.824;2022-09-06T02:23:34;6.15;;;4.40;;
74612;SDS011;63119;51.788;8.824;2022-09-06T02:26:04;5.65;;;4.13;;
74612;SDS011;63119;51.788;8.824;2022-09-06T02:28:33;7.18;;;3.35;;
74612;SDS011;63119;51.788;8.824;2022-09-06T02:31:03;5.13;;;3.67;;
74612;SDS011;63119;51.788;8.824;2022-09-06T02:33:34;4.18;;;3.53;;
74612;SDS011;63119;51.788;8.824;2022-09-06T02:36:04;4.38;;;3.58;;
74612;SDS011;63119;51.788;8.824;2022-09-06T02:38:33;6.22;;;3.55;;
74612;SDS011;63119;51.788;8.824;2022-09-06T02:41:01;6.88;;;3.67;;
74612;SDS011;63119;51.788;8.824;2022-09-06T02:43:28;4.30;;;3.72;;
74612;SDS011;63119;51.788;8.824;2022-09-06T02:45:54;5.70;;;4.22;;
74612;SDS011;63119;51.788;8.824;2022-09-06T02:48:19;5.73;;;3.77;;
74612;SDS011;63119;51.788;8.824;2022-09-06T02:50:44;6.37;;;3.87;;
74612;SDS011;63119;51.788;8.824;2022-09-06T02:53:10;5.83;;;4.10;;
74612;SDS011;63119;51.788;8.824;2022-09-06T02:55:37;6.65;;;3.90;;
74612;SDS011;63119;51.788;8.824;2022-09-06T02:58:03;5.23;;;3.70;;
74612;SDS011;63119;51.788;8.824;2022-09-06T03:00:29;5.38;;;4.13;;
74612;SDS011;63119;51.788;8.824;2022-09-06T03:02:55;6.07;;;4.47;;
74612;SDS011;63119;51.788;8.824;2022-09-06T03:05:21;5.30;;;3.92;;
74612;SDS011;63119;51.788;8.824;2022-09-06T03:07:48;5.90;;;4.30;;
74612;SDS011;63119;51.788;8.824;2022-09-06T03:10:13;4.65;;;3.83;;
74612;SDS011;63119;51.788;8.824;2022-09-06T03:12:40;4.50;;;3.67;;
74612;SDS011;63119;51.788;8.824;2022-09-06T03:15:07;7.50;;;4.38;;
74612;SDS011;63119;51.788;8.824;2022-09-06T03:17:32;5.97;;;4.13;;
74612;SDS011;63119;51.788;8.824;2022-09-06T03:19:57;7.50;;;3.93;;
74612;SDS011;63119;51.788;8.824;2022-09-06T03:22:23;5.23;;;4.03;;
74612;SDS011;63119;51.788;8.824;2022-09-06T03:24:48;6.20;;;4.10;;
74612;SDS011;63119;51.788;8.824;2022-09-06T03:27:13;5.33;;;3.63;;
74612;SDS011;63119;51.788;8.824;2022-09-06T03:29:38;13.83;;;5.03;;
74612;SDS011;63119;51.788;8.824;2022-09-06T03:32:04;7.30;;;4.63;;
74612;SDS011;63119;51.788;8.824;2022-09-06T03:34:29;5.97;;;4.07;;
74612;SDS011;63119;51.788;8.824;2022-09-06T03:36:54;5.47;;;4.00;;
74612;SDS011;63119;51.788;8.824;2022-09-06T03:39:19;5.83;;;4.40;;
74612;SDS011;63119;51.788;8.824;2022-09-06T03:41:45;4.97;;;3.97;;
74612;SDS011;63119;51.788;8.824;2022-09-06T03:44:10;6.57;;;4.07;;
74612;SDS011;63119;51.788;8.824;2022-09-06T03:46:35;5.90;;;4.10;;
74612;SDS011;63119;51.788;8.824;2022-09-06T03:49:01;5.88;;;4.50;;
74612;SDS011;63119;51.788;8.824;2022-09-06T03:51:26;11.03;;;4.10;;
74612;SDS011;63119;51.788;8.824;2022-09-06T03:53:52;4.85;;;4.00;;
74612;SDS011;63119;51.788;8.824;2022-09-06T03:56:17;5.20;;;4.10;;
74612;SDS011;63119;51.788;8.824;2022-09-06T03:58:42;6.17;;;3.70;;
74612;SDS011;63119;51.788;8.824;2022-09-06T04:01:08;6.50;;;4.03;;
74612;SDS011;63119;51.788;8.824;2022-09-06T04:03:35;5.30;;;3.78;;
74612;SDS011;63119;51.788;8.824;2022-09-06T04:06:02;6.53;;;3.95;;
74612;SDS011;63119;51.788;8.824;2022-09-06T04:08:29;4.38;;;3.60;;
74612;SDS011;63119;51.788;8.824;2022-09-06T04:10:55;5.25;;;4.28;;
74612;SDS011;63119;51.788;8.824;2022-09-06T04:13:21;6.53;;;4.63;;
74612;SDS011;63119;51.788;8.824;2022-09-06T04:15:48;4.97;;;3.83;;
74612;SDS011;63119;51.788;8.824;2022-09-06T04:18:13;5.18;;;4.68;;
74612;SDS011;63119;51.788;8.824;2022-09-06T04:20:39;6.10;;;4.43;;
74612;SDS011;63119;51.788;8.824;2022-09-06T04:23:04;9.37;;;4.50;;
74612;SDS011;63119;51.788;8.824;2022-09-06T04:25:30;7.07;;;4.20;;
74612;SDS011;63119;51.788;8.824;2022-09-06T04:27:55;6.27;;;3.83;;
74612;SDS011;63119;51.788;8.824;2022-09-06T04:30:20;7.60;;;4.07;;
74612;SDS011;63119;51.788;8.824;2022-09-06T04:32:46;6.50;;;4.73;;
74612;SDS011;63119;51.788;8.824;2022-09-06T04:35:11;5.47;;;4.47;;
74612;SDS011;63119;51.788;8.824;2022-09-06T04:37:37;6.60;;;4.57;;
74612;SDS011;63119;51.788;8.824;2022-09-06T04:40:03;5.25;;;4.28;;
74612;SDS011;63119;51.788;8.824;2022-09-06T04:42:28;6.00;;;4.22;;
74612;SDS011;63119;51.788;8.824;2022-09-06T04:44:53;8.40;;;4.77;;
74612;SDS011;63119;51.788;8.824;2022-09-06T04:47:19;6.97;;;4.50;;
74612;SDS011;63119;51.788;8.824;2022-09-06T04:49:44;7.07;;;4.65;;
74612;SDS011;63119;51.788;8.824;2022-09-06T04:52:10;5.72;;;4.00;;
74612;SDS011;63119;51.788;8.824;2022-09-06T04:54:36;6.18;;;4.30;;
74612;SDS011;63119;51.788;8.824;2022-09-06T04:57:01;6.80;;;4.03;;
74612;SDS011;63119;51.788;8.824;2022-09-06T04:59:27;8.63;;;3.83;;
74612;SDS011;63119;51.788;8.824;2022-09-06T05:01:52;10.17;;;4.70;;
74612;SDS011;63119;51.788;8.824;2022-09-06T05:04:17;6.20;;;4.78;;
74612;SDS011;63119;51.788;8.824;2022-09-06T05:06:43;5.47;;;4.50;;
74612;SDS011;63119;51.788;8.824;2022-09-06T05:09:09;9.75;;;5.43;;
74612;SDS011;63119;51.788;8.824;2022-09-06T05:11:35;7.38;;;4.40;;
74612;SDS011;63119;51.788;8.824;2022-09-06T05:14:00;5.57;;;4.30;;
74612;SDS011;63119;51.788;8.824;2022-09-06T05:16:25;8.07;;;4.60;;
74612;SDS011;63119;51.788;8.824;2022-09-06T05:18:50;9.53;;;5.07;;
74612;SDS011;63119;51.788;8.824;2022-09-06T05:21:16;8.73;;;4.47;;
74612;SDS011;63119;51.788;8.824;2022-09-06T05:23:41;8.45;;;4.60;;
74612;SDS011;63119;51.788;8.824;2022-09-06T05:26:06;5.83;;;4.60;;
74612;SDS011;63119;51.788;8.824;2022-09-06T05:28:32;6.85;;;4.30;;
74612;SDS011;63119;51.788;8.824;2022-09-06T05:31:08;6.05;;;4.47;;
74612;SDS011;63119;51.788;8.824;2022-09-06T05:33:46;6.80;;;4.70;;
74612;SDS011;63119;51.788;8.824;2022-09-06T05:36:12;6.53;;;4.90;;
74612;SDS011;63119;51.788;8.824;2022-09-06T05:38:37;7.37;;;4.83;;
74612;SDS011;63119;51.788;8.824;2022-09-06T05:41:02;6.33;;;4.80;;
74612;SDS011;63119;51.788;8.824;2022-09-06T05:43:27;5.57;;;4.72;;
74612;SDS011;63119;51.788;8.824;2022-09-06T05:45:53;7.00;;;4.90;;
74612;SDS011;63119;51.788;8.824;2022-09-06T05:48:18;8.57;;;4.73;;
74612;SDS011;63119;51.788;8.824;2022-09-06T05:50:43;5.20;;;4.70;;
74612;SDS011;63119;51.788;8.824;2022-09-06T05:53:08;5.57;;;4.70;;
74612;SDS011;63119;51.788;8.824;2022-09-06T05:55:34;6.97;;;5.10;;
74612;SDS011;63119;51.788;8.824;2022-09-06T05:57:59;7.83;;;5.20;;
74612;SDS011;63119;51.788;8.824;2022-09-06T06:00:24;11.80;;;5.50;;
74612;SDS011;63119;51.788;8.824;2022-09-06T06:02:49;13.13;;;6.40;;
74612;SDS011;63119;51.788;8.824;2022-09-06T06:05:15;11.97;;;5.60;;
74612;SDS011;63119;51.788;8.824;2022-09-06T06:07:40;7.47;;;4.63;;
74612;SDS011;63119;51.788;8.824;2022-09-06T06:10:06;7.50;;;4.82;;
74612;SDS011;63119;51.788;8.824;2022-09-06T06:12:32;7.15;;;5.10;;
74612;SDS011;63119;51.788;8.824;2022-09-06T06:14:57;7.20;;;5.10;;
74612;SDS011;63119;51.788;8.824;2022-09-06T06:17:22;7.07;;;5.13;;
74612;SDS011;63119;51.788;8.824;2022-09-06T06:19:48;7.82;;;5.40;;
74612;SDS011;63119;51.788;8.824;2022-09-06T06:22:13;7.23;;;5.20;;
74612;SDS011;63119;51.788;8.824;2022-09-06T06:24:38;6.83;;;4.53;;
74612;SDS011;63119;51.788;8.824;2022-09-06T06:27:04;8.70;;;5.20;;
74612;SDS011;63119;51.788;8.824;2022-09-06T06:29:29;7.03;;;4.50;;
74612;SDS011;63119;51.788;8.824;2022-09-06T06:31:55;8.95;;;5.00;;
74612;SDS011;63119;51.788;8.824;2022-09-06T06:34:20;9.30;;;5.20;;
74612;SDS011;63119;51.788;8.824;2022-09-06T06:36:46;12.30;;;5.40;;
74612;SDS011;63119;51.788;8.824;2022-09-06T06:39:11;8.65;;;5.05;;
74612;SDS011;63119;51.788;8.824;2022-09-06T06:41:36;8.30;;;4.40;;
74612;SDS011;63119;51.788;8.824;2022-09-06T06:44:03;5.20;;;3.80;;
74612;SDS011;63119;51.788;8.824;2022-09-06T06:46:33;8.95;;;4.90;;
74612;SDS011;63119;51.788;8.824;2022-09-06T06:49:00;11.20;;;4.70;;
74612;SDS011;63119;51.788;8.824;2022-09-06T06:51:26;6.28;;;4.25;;
74612;SDS011;63119;51.788;8.824;2022-09-06T06:53:53;8.27;;;4.93;;
74612;SDS011;63119;51.788;8.824;2022-09-06T06:56:27;9.60;;;4.38;;
74612;SDS011;63119;51.788;8.824;2022-09-06T06:58:55;6.65;;;4.72;;
74612;SDS011;63119;51.788;8.824;2022-09-06T07:01:23;8.68;;;4.70;;
74612;SDS011;63119;51.788;8.824;2022-09-06T07:03:50;6.35;;;4.22;;
74612;SDS011;63119;51.788;8.824;2022-09-06T07:06:16;9.25;;;4.40;;
74612;SDS011;63119;51.788;8.824;2022-09-06T07:08:42;13.85;;;4.50;;
74612;SDS011;63119;51.788;8.824;2022-09-06T07:11:08;11.70;;;4.57;;
74612;SDS011;63119;51.788;8.824;2022-09-06T07:13:35;11.25;;;4.50;;
74612;SDS011;63119;51.788;8.824;2022-09-06T07:16:08;6.15;;;4.03;;
74612;SDS011;63119;51.788;8.824;2022-09-06T07:18:36;6.32;;;4.03;;
74612;SDS011;63119;51.788;8.824;2022-09-06T07:21:05;4.78;;;4.05;;
74612;SDS011;63119;51.788;8.824;2022-09-06T07:23:32;4.30;;;3.42;;
74612;SDS011;63119;51.788;8.824;2022-09-06T07:25:57;5.13;;;4.10;;
74612;SDS011;63119;51.788;8.824;2022-09-06T07:28:22;5.93;;;4.20;;
74612;SDS011;63119;51.788;8.824;2022-09-06T07:30:47;5.93;;;3.60;;
74612;SDS011;63119;51.788;8.824;2022-09-06T07:33:17;5.40;;;3.55;;
74612;SDS011;63119;51.788;8.824;2022-09-06T07:35:52;5.60;;;3.20;;
74612;SDS011;63119;51.788;8.824;2022-09-06T07:38:18;4.20;;;3.22;;
74612;SDS011;63119;51.788;8.824;2022-09-06T07:40:48;4.20;;;2.80;;
74612;SDS011;63119;51.788;8.824;2022-09-06T07:43:16;7.05;;;2.97;;
74612;SDS011;63119;51.788;8.824;2022-09-06T07:45:42;5.83;;;3.23;;
74612;SDS011;63119;51.788;8.824;2022-09-06T07:48:07;5.60;;;3.00;;
74612;SDS011;63119;51.788;8.824;2022-09-06T07:50:32;5.50;;;2.93;;
74612;SDS011;63119;51.788;8.824;2022-09-06T07:53:04;3.97;;;3.00;;
74612;SDS011;63119;51.788;8.824;2022-09-06T07:57:56;4.77;;;3.87;;
74612;SDS011;63119;51.788;8.824;2022-09-06T08:00:21;4.47;;;2.80;;
74612;SDS011;63119;51.788;8.824;2022-09-06T08:02:46;3.90;;;3.27;;
74612;SDS011;63119;51.788;8.824;2022-09-06T08:05:11;7.07;;;3.83;;
74612;SDS011;63119;51.788;8.824;2022-09-06T08:07:37;3.70;;;2.93;;
74612;SDS011;63119;51.788;8.824;2022-09-06T08:10:02;4.57;;;3.00;;
74612;SDS011;63119;51.788;8.824;2022-09-06T08:12:27;4.47;;;3.25;;
74612;SDS011;63119;51.788;8.824;2022-09-06T08:14:53;7.37;;;3.30;;
74612;SDS011;63119;51.788;8.824;2022-09-06T08:17:18;8.52;;;3.30;;
74612;SDS011;63119;51.788;8.824;2022-09-06T08:19:44;6.60;;;3.83;;
74612;SDS011;63119;51.788;8.824;2022-09-06T08:22:09;4.97;;;3.03;;
74612;SDS011;63119;51.788;8.824;2022-09-06T08:24:34;6.30;;;3.33;;
74612;SDS011;63119;51.788;8.824;2022-09-06T08:27:00;3.77;;;2.70;;
74612;SDS011;63119;51.788;8.824;2022-09-06T08:29:26;4.07;;;2.80;;
74612;SDS011;63119;51.788;8.824;2022-09-06T08:31:51;3.93;;;2.67;;
74612;SDS011;63119;51.788;8.824;2022-09-06T08:34:16;4.97;;;2.43;;
74612;SDS011;63119;51.788;8.824;2022-09-06T08:36:42;6.20;;;3.00;;
74612;SDS011;63119;51.788;8.824;2022-09-06T08:39:09;5.63;;;2.65;;
74612;SDS011;63119;51.788;8.824;2022-09-06T08:44:29;3.45;;;2.70;;
74612;SDS011;63119;51.788;8.824;2022-09-06T08:49:31;3.88;;;2.28;;
74612;SDS011;63119;51.788;8.824;2022-09-06T08:54:37;3.60;;;2.00;;
74612;SDS011;63119;51.788;8.824;2022-09-06T08:57:14;2.92;;;2.08;;
74612;SDS011;63119;51.788;8.824;2022-09-06T08:59:40;3.65;;;2.10;;
74612;SDS011;63119;51.788;8.824;2022-09-06T09:02:11;4.28;;;2.15;;
74612;SDS011;63119;51.788;8.824;2022-09-06T09:04:40;5.15;;;2.25;;
74612;SDS011;63119;51.788;8.824;2022-09-06T09:07:12;3.08;;;2.40;;
74612;SDS011;63119;51.788;8.824;2022-09-06T09:09:40;7.72;;;2.30;;
74612;SDS011;63119;51.788;8.824;2022-09-06T09:12:06;2.73;;;2.20;;
74612;SDS011;63119;51.788;8.824;2022-09-06T09:14:35;4.25;;;2.30;;
74612;SDS011;63119;51.788;8.824;2022-09-06T09:17:23;4.75;;;2.50;;
74612;SDS011;63119;51.788;8.824;2022-09-06T09:19:51;2.70;;;2.10;;
74612;SDS011;63119;51.788;8.824;2022-09-06T09:22:17;2.67;;;2.30;;
74612;SDS011;63119;51.788;8.824;2022-09-06T09:24:44;3.80;;;2.90;;
74612;SDS011;63119;51.788;8.824;2022-09-06T09:27:11;6.80;;;2.83;;
74612;SDS011;63119;51.788;8.824;2022-09-06T09:29:54;5.18;;;2.70;;
74612;SDS011;63119;51.788;8.824;2022-09-06T09:35:20;4.35;;;2.75;;
74612;SDS011;63119;51.788;8.824;2022-09-06T09:40:27;7.43;;;3.20;;
74612;SDS011;63119;51.788;8.824;2022-09-06T09:42:56;4.13;;;2.72;;
74612;SDS011;63119;51.788;8.824;2022-09-06T09:45:34;5.20;;;2.67;;
74612;SDS011;63119;51.788;8.824;2022-09-06T09:48:19;5.57;;;2.87;;
74612;SDS011;63119;51.788;8.824;2022-09-06T09:50:48;4.15;;;3.08;;
74612;SDS011;63119;51.788;8.824;2022-09-06T09:53:15;8.10;;;3.23;;
74612;SDS011;63119;51.788;8.824;2022-09-06T09:55:43;5.50;;;2.90;;
74612;SDS011;63119;51.788;8.824;2022-09-06T09:58:29;4.53;;;2.53;;
74612;SDS011;63119;51.788;8.824;2022-09-06T10:01:16;4.75;;;2.95;;
74612;SDS011;63119;51.788;8.824;2022-09-06T10:03:45;6.78;;;2.70;;
74612;SDS011;63119;51.788;8.824;2022-09-06T10:06:11;6.65;;;2.65;;
74612;SDS011;63119;51.788;8.824;2022-09-06T10:08:39;3.40;;;2.72;;
74612;SDS011;63119;51.788;8.824;2022-09-06T10:11:10;4.13;;;2.38;;
74612;SDS011;63119;51.788;8.824;2022-09-06T10:13:36;7.18;;;2.60;;
74612;SDS011;63119;51.788;8.824;2022-09-06T10:16:02;4.45;;;2.40;;
74612;SDS011;63119;51.788;8.824;2022-09-06T10:21:00;5.28;;;3.70;;
74612;SDS011;63119;51.788;8.824;2022-09-06T10:26:37;5.10;;;2.63;;
74612;SDS011;63119;51.788;8.824;2022-09-06T10:29:12;2.70;;;2.40;;
74612;SDS011;63119;51.788;8.824;2022-09-06T10:31:50;4.20;;;2.65;;
74612;SDS011;63119;51.788;8.824;2022-09-06T10:40:10;2.80;;;2.30;;
74612;SDS011;63119;51.788;8.824;2022-09-06T10:42:42;3.35;;;2.55;;
74612;SDS011;63119;51.788;8.824;2022-09-06T10:47:50;4.82;;;2.50;;
74612;SDS011;63119;51.788;8.824;2022-09-06T10:50:24;5.38;;;3.20;;
74612;SDS011;63119;51.788;8.824;2022-09-06T10:52:58;5.55;;;2.80;;
74612;SDS011;63119;51.788;8.824;2022-09-06T10:55:32;3.90;;;2.60;;
74612;SDS011;63119;51.788;8.824;2022-09-06T10:58:00;3.50;;;2.30;;
74612;SDS011;63119;51.788;8.824;2022-09-06T11:00:30;4.18;;;2.63;;
74612;SDS011;63119;51.788;8.824;2022-09-06T11:03:02;3.72;;;2.10;;
74612;SDS011;63119;51.788;8.824;2022-09-06T11:05:39;3.70;;;2.33;;
74612;SDS011;63119;51.788;8.824;2022-09-06T11:08:10;4.13;;;2.42;;
74612;SDS011;63119;51.788;8.824;2022-09-06T11:10:41;3.63;;;2.17;;
74612;SDS011;63119;51.788;8.824;2022-09-06T11:13:16;3.47;;;2.05;;
74612;SDS011;63119;51.788;8.824;2022-09-06T11:21:17;4.82;;;2.78;;
74612;SDS011;63119;51.788;8.824;2022-09-06T11:23:47;3.00;;;2.30;;
74612;SDS011;63119;51.788;8.824;2022-09-06T11:28:45;3.67;;;2.00;;
74612;SDS011;63119;51.788;8.824;2022-09-06T11:31:18;9.82;;;2.20;;
74612;SDS011;63119;51.788;8.824;2022-09-06T11:33:48;10.00;;;2.38;;
74612;SDS011;63119;51.788;8.824;2022-09-06T11:39:11;3.35;;;2.50;;
74612;SDS011;63119;51.788;8.824;2022-09-06T11:41:39;3.10;;;2.50;;
74612;SDS011;63119;51.788;8.824;2022-09-06T11:44:09;2.17;;;1.95;;
74612;SDS011;63119;51.788;8.824;2022-09-06T11:49:04;4.90;;;2.43;;
74612;SDS011;63119;51.788;8.824;2022-09-06T11:51:32;6.07;;;2.13;;
74612;SDS011;63119;51.788;8.824;2022-09-06T11:54:02;3.95;;;2.45;;
74612;SDS011;63119;51.788;8.824;2022-09-06T11:56:30;4.30;;;2.40;;
74612;SDS011;63119;51.788;8.824;2022-09-06T12:02:31;3.20;;;2.42;;
74612;SDS011;63119;51.788;8.824;2022-09-06T12:07:31;3.90;;;2.17;;
74612;SDS011;63119;51.788;8.824;2022-09-06T12:13:05;5.30;;;2.80;;
74612;SDS011;63119;51.788;8.824;2022-09-06T12:15:57;6.85;;;2.33;;
74612;SDS011;63119;51.788;8.824;2022-09-06T12:29:51;3.85;;;2.22;;
74612;SDS011;63119;51.788;8.824;2022-09-06T12:32:20;5.25;;;2.30;;
74612;SDS011;63119;51.788;8.824;2022-09-06T12:34:49;3.50;;;2.15;;
74612;SDS011;63119;51.788;8.824;2022-09-06T12:37:16;4.93;;;2.55;;
74612;SDS011;63119;51.788;8.824;2022-09-06T12:42:21;9.77;;;2.53;;
74612;SDS011;63119;51.788;8.824;2022-09-06T12:44:47;6.05;;;2.45;;
74612;SDS011;63119;51.788;8.824;2022-09-06T12:47:17;4.10;;;2.22;;
74612;SDS011;63119;51.788;8.824;2022-09-06T12:49:46;2.95;;;2.45;;
74612;SDS011;63119;51.788;8.824;2022-09-06T12:52:27;7.30;;;2.33;;
74612;SDS011;63119;51.788;8.824;2022-09-06T12:54:53;3.78;;;1.98;;
74612;SDS011;63119;51.788;8.824;2022-09-06T12:57:20;3.33;;;2.00;;
74612;SDS011;63119;51.788;8.824;2022-09-06T12:59:47;4.30;;;2.25;;
74612;SDS011;63119;51.788;8.824;2022-09-06T13:02:15;3.75;;;1.90;;
74612;SDS011;63119;51.788;8.824;2022-09-06T13:04:47;4.07;;;2.20;;
74612;SDS011;63119;51.788;8.824;2022-09-06T13:07:16;3.88;;;2.10;;
74612;SDS011;63119;51.788;8.824;2022-09-06T13:09:44;3.75;;;2.00;;
74612;SDS011;63119;51.788;8.824;2022-09-06T13:15:04;4.15;;;2.10;;
74612;SDS011;63119;51.788;8.824;2022-09-06T13:17:49;4.50;;;2.10;;
74612;SDS011;63119;51.788;8.824;2022-09-06T13:23:04;3.42;;;1.73;;
74612;SDS011;63119;51.788;8.824;2022-09-06T13:25:33;4.13;;;2.13;;
74612;SDS011;63119;51.788;8.824;2022-09-06T13:27:58;7.73;;;2.20;;
74612;SDS011;63119;51.788;8.824;2022-09-06T13:30:38;2.55;;;2.00;;
74612;SDS011;63119;51.788;8.824;2022-09-06T13:33:22;4.38;;;2.08;;
74612;SDS011;63119;51.788;8.824;2022-09-06T13:35:50;4.07;;;1.90;;
74612;SDS011;63119;51.788;8.824;2022-09-06T13:40:55;5.15;;;2.10;;
74612;SDS011;63119;51.788;8.824;2022-09-06T13:43:21;3.72;;;2.17;;
74612;SDS011;63119;51.788;8.824;2022-09-06T13:45:47;5.50;;;1.95;;
74612;SDS011;63119;51.788;8.824;2022-09-06T13:48:13;4.72;;;2.20;;
74612;SDS011;63119;51.788;8.824;2022-09-06T13:50:39;2.73;;;2.20;;
74612;SDS011;63119;51.788;8.824;2022-09-06T13:53:05;3.00;;;2.00;;
74612;SDS011;63119;51.788;8.824;2022-09-06T13:55:30;2.42;;;2.08;;
74612;SDS011;63119;51.788;8.824;2022-09-06T13:57:57;4.32;;;2.10;;
74612;SDS011;63119;51.788;8.824;2022-09-06T14:00:22;4.82;;;1.90;;
74612;SDS011;63119;51.788;8.824;2022-09-06T14:02:48;2.80;;;1.97;;
74612;SDS011;63119;51.788;8.824;2022-09-06T14:05:14;2.88;;;1.98;;
74612;SDS011;63119;51.788;8.824;2022-09-06T14:07:41;5.43;;;1.95;;
74612;SDS011;63119;51.788;8.824;2022-09-06T14:10:07;2.42;;;1.70;;
74612;SDS011;63119;51.788;8.824;2022-09-06T14:12:33;2.30;;;1.70;;
74612;SDS011;63119;51.788;8.824;2022-09-06T14:14:59;5.95;;;1.90;;
74612;SDS011;63119;51.788;8.824;2022-09-06T14:17:24;3.05;;;1.73;;
74612;SDS011;63119;51.788;8.824;2022-09-06T14:19:49;4.07;;;1.90;;
74612;SDS011;63119;51.788;8.824;2022-09-06T14:22:15;9.47;;;2.13;;
74612;SDS011;63119;51.788;8.824;2022-09-06T14:24:40;3.47;;;2.00;;
74612;SDS011;63119;51.788;8.824;2022-09-06T14:27:05;5.27;;;1.93;;
74612;SDS011;63119;51.788;8.824;2022-09-06T14:29:32;3.28;;;2.05;;
74612;SDS011;63119;51.788;8.824;2022-09-06T14:31:58;3.13;;;1.85;;
74612;SDS011;63119;51.788;8.824;2022-09-06T14:34:24;6.90;;;2.00;;
74612;SDS011;63119;51.788;8.824;2022-09-06T14:36:49;7.20;;;2.30;;
74612;SDS011;63119;51.788;8.824;2022-09-06T14:39:15;4.43;;;1.85;;
74612;SDS011;63119;51.788;8.824;2022-09-06T14:41:41;8.27;;;2.60;;
74612;SDS011;63119;51.788;8.824;2022-09-06T14:44:06;4.30;;;1.80;;
74612;SDS011;63119;51.788;8.824;2022-09-06T14:46:33;2.13;;;1.70;;
74612;SDS011;63119;51.788;8.824;2022-09-06T14:48:59;4.27;;;2.00;;
74612;SDS011;63119;51.788;8.824;2022-09-06T14:51:26;5.05;;;2.05;;
74612;SDS011;63119;51.788;8.824;2022-09-06T14:53:53;2.20;;;1.67;;
74612;SDS011;63119;51.788;8.824;2022-09-06T14:56:20;4.05;;;2.10;;
74612;SDS011;63119;51.788;8.824;2022-09-06T14:58:47;3.22;;;1.85;;
74612;SDS011;63119;51.788;8.824;2022-09-06T15:01:14;4.38;;;1.80;;
74612;SDS011;63119;51.788;8.824;2022-09-06T15:03:45;4.05;;;1.80;;
74612;SDS011;63119;51.788;8.824;2022-09-06T15:06:16;4.05;;;2.08;;
74612;SDS011;63119;51.788;8.824;2022-09-06T15:08:43;4.65;;;2.03;;
74612;SDS011;63119;51.788;8.824;2022-09-06T15:11:09;3.33;;;1.60;;
74612;SDS011;63119;51.788;8.824;2022-09-06T15:13:36;4.00;;;1.83;;
74612;SDS011;63119;51.788;8.824;2022-09-06T15:16:03;4.50;;;2.05;;
74612;SDS011;63119;51.788;8.824;2022-09-06T15:18:29;3.85;;;1.58;;
74612;SDS011;63119;51.788;8.824;2022-09-06T15:20:55;2.10;;;1.48;;
74612;SDS011;63119;51.788;8.824;2022-09-06T15:23:21;3.83;;;2.10;;
74612;SDS011;63119;51.788;8.824;2022-09-06T15:25:50;2.40;;;1.90;;
74612;SDS011;63119;51.788;8.824;2022-09-06T15:28:16;2.90;;;1.73;;
74612;SDS011;63119;51.788;8.824;2022-09-06T15:30:45;3.30;;;1.80;;
74612;SDS011;63119;51.788;8.824;2022-09-06T15:33:11;5.53;;;2.25;;
74612;SDS011;63119;51.788;8.824;2022-09-06T15:35:38;5.63;;;2.50;;
74612;SDS011;63119;51.788;8.824;2022-09-06T15:38:05;4.75;;;2.28;;
74612;SDS011;63119;51.788;8.824;2022-09-06T15:40:30;5.40;;;2.00;;
74612;SDS011;63119;51.788;8.824;2022-09-06T15:42:55;4.77;;;2.03;;
74612;SDS011;63119;51.788;8.824;2022-09-06T15:45:20;4.23;;;1.97;;
74612;SDS011;63119;51.788;8.824;2022-09-06T15:47:46;4.63;;;2.10;;
74612;SDS011;63119;51.788;8.824;2022-09-06T15:50:11;3.53;;;1.90;;
74612;SDS011;63119;51.788;8.824;2022-09-06T15:52:36;4.37;;;1.90;;
74612;SDS011;63119;51.788;8.824;2022-09-06T15:55:01;2.97;;;1.83;;
74612;SDS011;63119;51.788;8.824;2022-09-06T15:57:50;4.65;;;2.30;;
74612;SDS011;63119;51.788;8.824;2022-09-06T16:00:15;3.00;;;2.17;;
74612;SDS011;63119;51.788;8.824;2022-09-06T16:02:41;6.43;;;2.10;;
74612;SDS011;63119;51.788;8.824;2022-09-06T16:05:07;3.80;;;2.00;;
74612;SDS011;63119;51.788;8.824;2022-09-06T16:07:32;6.93;;;2.33;;
74612;SDS011;63119;51.788;8.824;2022-09-06T16:09:57;3.70;;;2.13;;
74612;SDS011;63119;51.788;8.824;2022-09-06T16:12:24;4.28;;;2.20;;
74612;SDS011;63119;51.788;8.824;2022-09-06T16:14:50;7.30;;;2.23;;
74612;SDS011;63119;51.788;8.824;2022-09-06T16:17:15;8.35;;;2.80;;
74612;SDS011;63119;51.788;8.824;2022-09-06T16:19:41;8.83;;;2.20;;
74612;SDS011;63119;51.788;8.824;2022-09-06T16:22:06;4.03;;;2.00;;
74612;SDS011;63119;51.788;8.824;2022-09-06T16:24:31;3.83;;;2.10;;
74612;SDS011;63119;51.788;8.824;2022-09-06T16:26:57;4.97;;;2.22;;